Time;durP1;ratioP1;P1;durP2;ratioP2;P2;SDS_P1;SDS_P2;PMS_P1;PMS_P2;Temp;Humidity;BMP_temperature;BMP_pressure;BME280_temperature;BME280_humidity;BME280_pressure;Samples;Min_cycle;Max_cycle;Signal;HPM_P1;HPM_P2
2021/03/27 00:01:41;;;;;;;6.47;4.70;;;;;;;8.27;86.07;100620.66;5003010;28;20052;-83
2021/03/27 00:04:25;;;;;;;9.27;6.15;;;;;;;8.11;88.05;100634.72;5032534;28;20056;-82
2021/03/27 00:07:19;;;;;;;6.82;5.38;;;;;;;8.05;89.63;100637.13;5018397;28;20045;-83
2021/03/27 00:10:03;;;;;;;8.77;5.90;;;;;;;7.98;91.08;100644.09;5020094;28;20064;-82
2021/03/27 00:12:51;;;;;;;9.43;6.10;;;;;;;7.77;91.99;100647.88;5021764;28;20064;-82
2021/03/27 00:15:24;;;;;;;10.05;6.60;;;;;;;7.67;94.62;100641.75;5021342;28;20057;-83
2021/03/27 00:18:23;;;;;;;9.20;6.72;;;;;;;7.55;95.21;100645.59;5022736;28;20052;-82
2021/03/27 00:21:06;;;;;;;;;;;;;;;7.46;96.55;100658.00;4998906;28;20045;-83
2021/03/27 00:23:49;;;;;;;8.38;5.40;;;;;;;7.27;98.54;100669.59;5019918;28;19924;-83
2021/03/27 00:26:44;;;;;;;9.50;5.43;;;;;;;7.21;98.26;100663.00;5041069;28;20091;-83
2021/03/27 00:29:20;;;;;;;6.97;5.38;;;;;;;7.07;97.77;100684.00;5039383;28;20038;-83
2021/03/27 00:31:53;;;;;;;7.85;5.00;;;;;;;6.97;98.03;100676.84;5031436;28;20049;-84
2021/03/27 00:34:21;;;;;;;7.22;4.60;;;;;;;6.91;98.68;100682.75;5024501;28;20061;-83
2021/03/27 00:36:50;;;;;;;6.10;4.07;;;;;;;6.79;98.63;100691.91;5027592;28;20037;-83
2021/03/27 00:39:21;;;;;;;6.35;4.03;;;;;;;6.74;98.90;100688.81;5025588;28;20382;-84
2021/03/27 00:41:55;;;;;;;6.38;3.92;;;;;;;6.69;99.43;100704.41;5042875;28;20405;-84
2021/03/27 00:44:27;;;;;;;8.50;4.05;;;;;;;6.63;100.00;100699.63;5026156;28;20041;-84
2021/03/27 00:46:54;;;;;;;6.40;4.00;;;;;;;6.53;100.00;100705.81;5027304;28;20124;-83
2021/03/27 00:49:25;;;;;;;9.10;5.05;;;;;;;6.48;100.00;100700.06;5026187;28;20076;-83
2021/03/27 00:51:55;;;;;;;10.18;5.35;;;;;;;6.42;100.00;100689.97;5027934;28;20053;-84
2021/03/27 00:54:25;;;;;;;8.88;5.93;;;;;;;6.40;100.00;100699.91;5024165;28;20076;-84
2021/03/27 00:57:18;;;;;;;9.60;6.38;;;;;;;6.37;100.00;100700.19;5019853;28;20079;-83
2021/03/27 01:00:03;;;;;;;10.40;5.65;;;;;;;6.23;100.00;100700.59;4994059;28;20068;-84
2021/03/27 01:02:30;;;;;;;7.38;5.43;;;;;;;6.18;100.00;100708.16;5018098;28;20050;-83
2021/03/27 01:04:58;;;;;;;8.23;6.25;;;;;;;6.13;100.00;100705.06;5006592;28;20128;-83
2021/03/27 01:07:25;;;;;;;10.07;6.50;;;;;;;6.09;100.00;100704.50;5021771;28;20041;-83
2021/03/27 01:10:11;;;;;;;8.45;6.40;;;;;;;6.04;100.00;100720.03;5022686;28;20044;-84
2021/03/27 01:12:39;;;;;;;11.73;7.35;;;;;;;6.01;100.00;100715.84;5013774;28;20123;-83
2021/03/27 01:15:19;;;;;;;12.20;8.57;;;;;;;5.99;100.00;100724.97;5015298;28;20045;-83
2021/03/27 01:17:49;;;;;;;13.35;8.70;;;;;;;5.95;100.00;100729.69;5035141;28;20060;-84
2021/03/27 01:20:25;;;;;;;;;;;;;;;5.96;100.00;100735.88;5036188;28;20547;-82
2021/03/27 01:22:52;;;;;;;15.70;9.90;;;;;;;5.86;100.00;100726.00;5017005;28;19917;-83
2021/03/27 01:25:29;;;;;;;17.35;11.55;;;;;;;5.88;100.00;100739.19;5020046;28;20050;-83
2021/03/27 01:28:04;;;;;;;16.83;10.88;;;;;;;5.86;100.00;100736.66;5012635;28;20050;-83
2021/03/27 01:30:40;;;;;;;15.73;10.55;;;;;;;5.82;100.00;100731.75;5022450;28;20128;-83
2021/03/27 01:33:21;;;;;;;14.35;10.70;;;;;;;5.77;100.00;100729.47;5017115;28;20052;-83
2021/03/27 01:35:55;;;;;;;11.75;9.02;;;;;;;5.74;100.00;100755.53;5021355;28;20050;-83
2021/03/27 01:38:27;;;;;;;12.88;9.07;;;;;;;5.69;99.99;100741.78;5021312;28;20095;-82
2021/03/27 01:41:27;;;;;;;12.57;9.68;;;;;;;5.68;100.00;100737.44;5041654;28;20041;-83
2021/03/27 01:44:19;;;;;;;9.13;7.00;;;;;;;5.62;100.00;100739.66;5002935;28;20130;-82
2021/03/27 01:47:06;;;;;;;8.48;5.82;;;;;;;5.60;100.00;100740.75;5026437;28;20479;-83
2021/03/27 01:49:43;;;;;;;8.32;5.63;;;;;;;5.57;100.00;100755.16;5020254;28;20049;-84
2021/03/27 01:52:13;;;;;;;7.93;6.07;;;;;;;5.60;100.00;100759.38;5021212;28;20072;-83
2021/03/27 01:55:18;;;;;;;8.18;5.90;;;;;;;5.59;100.00;100760.38;5022693;28;20041;-82
2021/03/27 01:57:55;;;;;;;8.00;4.70;;;;;;;5.52;100.00;100752.06;5030971;28;20045;-82
2021/03/27 02:00:53;;;;;;;6.90;4.85;;;;;;;5.51;100.00;100757.53;5015174;28;20548;-82
2021/03/27 02:03:31;;;;;;;7.07;4.53;;;;;;;5.44;100.00;100762.53;5018092;28;20080;-82
2021/03/27 02:06:07;;;;;;;8.90;4.80;;;;;;;5.44;100.00;100759.88;5020382;28;20110;-83
2021/03/27 02:08:56;;;;;;;7.78;4.75;;;;;;;5.36;100.00;100768.50;5023619;28;20041;-82
2021/03/27 02:11:40;;;;;;;8.07;5.18;;;;;;;5.39;100.00;100756.78;5000982;28;20103;-84
2021/03/27 02:14:16;;;;;;;8.38;5.20;;;;;;;5.37;100.00;100772.00;5014906;28;20052;-85
2021/03/27 02:16:56;;;;;;;8.07;5.32;;;;;;;5.42;100.00;100778.63;5023985;28;20120;-82
2021/03/27 02:19:58;;;;;;;8.15;4.88;;;;;;;5.42;100.00;100777.78;5021884;28;20498;-83
2021/03/27 02:22:25;;;;;;;7.55;5.28;;;;;;;5.41;100.00;100773.44;5018302;28;20077;-84
2021/03/27 02:24:53;;;;;;;10.50;5.90;;;;;;;5.39;100.00;100778.06;5033531;28;20052;-84
2021/03/27 02:27:25;;;;;;;9.30;4.93;;;;;;;5.44;100.00;100783.84;5027553;28;20037;-82
2021/03/27 02:30:09;;;;;;;10.63;6.43;;;;;;;5.44;100.00;100794.47;5019105;28;20046;-84
2021/03/27 02:33:16;;;;;;;10.80;6.60;;;;;;;5.46;100.00;100776.53;5020134;28;20041;-83
2021/03/27 02:36:05;;;;;;;12.38;8.60;;;;;;;5.45;100.00;100787.34;4989437;28;20052;-83
2021/03/27 02:38:52;;;;;;;14.80;8.07;;;;;;;5.36;100.00;100815.56;5020772;28;20587;-83
2021/03/27 02:41:43;;;;;;;14.45;8.90;;;;;;;5.36;100.00;100791.63;5023137;28;20131;-83
2021/03/27 02:44:20;;;;;;;15.00;8.65;;;;;;;5.34;100.00;100786.41;5023704;28;20034;-82
2021/03/27 02:46:49;;;;;;;14.77;9.75;;;;;;;5.35;100.00;100795.25;5013010;28;20140;-82
2021/03/27 02:49:17;;;;;;;14.07;9.00;;;;;;;5.38;100.00;100803.84;5012832;28;20089;-83
2021/03/27 02:51:51;;;;;;;15.55;9.55;;;;;;;5.41;100.00;100800.91;5016679;28;20171;-82
2021/03/27 02:54:30;;;;;;;14.45;8.93;;;;;;;5.41;100.00;100810.72;5026282;28;20514;-83
2021/03/27 02:57:03;;;;;;;15.80;10.25;;;;;;;5.44;100.00;100799.81;5020199;28;20521;-83
2021/03/27 02:59:51;;;;;;;15.45;9.18;;;;;;;5.43;100.00;100806.09;5026353;28;20048;-83
2021/03/27 03:02:26;;;;;;;16.27;11.27;;;;;;;5.42;100.00;100812.38;5037477;28;20057;-82
2021/03/27 03:05:18;;;;;;;15.80;9.70;;;;;;;5.43;100.00;100814.06;5016892;28;20041;-82
2021/03/27 03:08:19;;;;;;;16.67;9.45;;;;;;;5.47;100.00;100815.50;5022338;28;20477;-82
2021/03/27 03:11:11;;;;;;;17.17;10.88;;;;;;;5.50;100.00;100825.91;5018746;28;20060;-83
2021/03/27 03:13:50;;;;;;;16.35;9.95;;;;;;;5.49;100.00;100810.88;5019936;28;20065;-82
2021/03/27 03:16:27;;;;;;;15.32;10.25;;;;;;;5.51;100.00;100819.59;5025525;28;20044;-83
2021/03/27 03:19:19;;;;;;;14.50;8.93;;;;;;;5.53;100.00;100828.28;5025709;28;20057;-83
2021/03/27 03:22:11;;;;;;;13.55;8.43;;;;;;;5.53;100.00;100822.97;5010509;28;20049;-82
2021/03/27 03:24:36;;;;;;;12.90;8.30;;;;;;;5.52;100.00;100820.44;5019479;28;20041;-83
2021/03/27 03:27:39;;;;;;;15.00;9.10;;;;;;;5.56;100.00;100861.78;5022037;28;20397;-83
2021/03/27 03:30:26;;;;;;;11.05;4.03;;;;;;;5.16;96.31;100879.28;5021560;28;20056;-82
2021/03/27 03:33:22;;;;;;;6.85;3.97;;;;;;;4.84;97.93;100884.59;5022279;28;20041;-83
2021/03/27 03:36:00;;;;;;;6.43;3.38;;;;;;;4.72;99.66;100881.13;5014276;28;20049;-82
2021/03/27 03:38:28;;;;;;;5.75;2.30;;;;;;;4.54;99.62;100887.91;5038269;28;20662;-82
2021/03/27 03:41:15;;;;;;;9.63;2.27;;;;;;;4.47;100.00;100905.31;5024471;28;20057;-82
2021/03/27 03:43:52;;;;;;;8.52;2.28;;;;;;;4.38;100.00;100877.66;5018449;28;20037;-84
2021/03/27 03:46:24;;;;;;;7.72;2.33;;;;;;;4.36;100.00;100884.06;5020446;28;20167;-82
2021/03/27 03:49:01;;;;;;;7.07;3.33;;;;;;;4.27;100.00;100889.13;5026184;28;20045;-83
2021/03/27 03:51:45;;;;;;;10.07;3.33;;;;;;;4.33;100.00;100887.81;5021261;28;20045;-83
2021/03/27 03:54:32;;;;;;;11.30;4.32;;;;;;;4.33;100.00;100901.09;5025540;28;20562;-83
2021/03/27 03:57:08;;;;;;;10.55;5.32;;;;;;;4.39;100.00;100900.59;5031309;28;20064;-83
2021/03/27 03:59:37;;;;;;;9.75;4.47;;;;;;;4.34;100.00;100899.28;5028169;28;20073;-82
2021/03/27 04:02:16;;;;;;;9.65;5.22;;;;;;;4.36;100.00;100900.84;5028526;28;20065;-83
2021/03/27 04:04:47;;;;;;;13.60;6.85;;;;;;;4.37;100.00;100905.19;5028709;28;20041;-83
2021/03/27 04:07:18;;;;;;;12.45;7.43;;;;;;;4.46;100.00;100900.94;5029124;28;20038;-83
2021/03/27 04:10:03;;;;;;;17.85;8.80;;;;;;;4.55;100.00;100904.72;5035897;28;20042;-82
2021/03/27 04:12:37;;;;;;;16.95;8.02;;;;;;;4.62;100.00;100881.97;5021757;28;20521;-82
2021/03/27 04:15:32;;;;;;;19.50;9.15;;;;;;;4.71;100.00;100892.69;5031082;28;21059;-84
2021/03/27 04:17:58;;;;;;;19.58;8.98;;;;;;;4.78;100.00;100882.44;5013564;28;20045;-83
2021/03/27 04:20:35;;;;;;;13.57;8.15;;;;;;;4.88;100.00;100887.84;5032076;28;20054;-83
2021/03/27 04:23:20;;;;;;;15.75;10.45;;;;;;;5.01;100.00;100907.16;5025585;28;20445;-82
2021/03/27 04:26:04;;;;;;;18.70;9.77;;;;;;;5.09;100.00;100919.81;5026850;28;20034;-82
2021/03/27 04:28:51;;;;;;;24.23;10.20;;;;;;;5.13;100.00;100908.81;5029873;28;20048;-83
2021/03/27 04:31:27;;;;;;;19.75;9.70;;;;;;;5.16;100.00;100900.56;5035051;28;20036;-82
2021/03/27 04:34:02;;;;;;;17.27;8.63;;;;;;;5.21;100.00;100913.50;5029534;28;20053;-83
2021/03/27 04:36:38;;;;;;;17.25;10.45;;;;;;;5.27;100.00;100913.00;5012701;28;20041;-83
2021/03/27 04:39:11;;;;;;;18.35;11.27;;;;;;;5.29;100.00;100927.00;5025606;28;20046;-82
2021/03/27 04:41:44;;;;;;;19.33;9.63;;;;;;;5.27;100.00;100913.00;5052129;28;20394;-84
2021/03/27 04:44:46;;;;;;;16.48;9.68;;;;;;;5.30;100.00;100919.88;5025283;28;20055;-82
2021/03/27 04:47:22;;;;;;;20.30;10.20;;;;;;;5.30;100.00;100917.22;5027352;28;20037;-82
2021/03/27 04:50:06;;;;;;;17.67;10.57;;;;;;;5.31;100.00;100922.41;5042617;28;20073;-83
2021/03/27 04:52:50;;;;;;;18.75;9.80;;;;;;;5.34;100.00;100918.63;5027509;28;20048;-83
2021/03/27 04:55:42;;;;;;;21.80;10.65;;;;;;;5.35;100.00;100922.97;5026928;28;20045;-83
2021/03/27 04:58:20;;;;;;;18.63;10.38;;;;;;;5.36;100.00;100922.88;5040765;28;20045;-81
2021/03/27 05:00:58;;;;;;;19.88;10.52;;;;;;;5.33;100.00;100924.94;5027816;28;20075;-82
2021/03/27 05:03:29;;;;;;;18.35;9.30;;;;;;;5.33;100.00;100922.28;5028818;28;20135;-83
2021/03/27 05:06:05;;;;;;;20.83;8.48;;;;;;;5.36;99.97;100924.69;5014272;28;20048;-84
2021/03/27 05:08:44;;;;;;;15.25;7.78;;;;;;;5.33;99.48;100933.75;5030533;28;20042;-83
2021/03/27 05:11:24;;;;;;;15.45;7.55;;;;;;;5.38;99.77;100928.91;5031027;28;20644;-83
2021/03/27 05:14:21;;;;;;;17.25;8.18;;;;;;;5.40;99.60;100944.75;5031322;28;20129;-83
2021/03/27 05:17:02;;;;;;;15.40;8.38;;;;;;;5.39;99.57;100927.09;5012206;28;20045;-82
2021/03/27 05:19:50;;;;;;;22.02;8.38;;;;;;;5.40;99.57;100934.09;5028842;28;20045;-82
2021/03/27 05:22:34;;;;;;;16.13;8.20;;;;;;;5.41;99.56;100936.63;5026755;28;20080;-82
2021/03/27 05:25:30;;;;;;;12.77;5.30;;;;;;;5.37;98.93;100942.34;5044815;28;20626;-83
2021/03/27 05:28:13;;;;;;;18.40;7.32;;;;;;;5.39;99.13;100935.06;5027987;28;20057;-83
2021/03/27 05:31:04;;;;;;;20.00;7.75;;;;;;;5.39;98.97;100943.06;5027764;28;20595;-83
2021/03/27 05:33:42;;;;;;;13.82;6.30;;;;;;;5.36;98.85;100949.47;5043490;28;20128;-83
2021/03/27 05:36:45;;;;;;;13.30;6.78;;;;;;;5.39;99.09;100959.03;5024282;28;20042;-82
2021/03/27 05:39:20;;;;;;;18.17;7.35;;;;;;;5.41;98.86;100954.44;5025930;28;20502;-84
2021/03/27 05:42:07;;;;;;;15.10;5.78;;;;;;;5.37;98.31;100948.50;5047556;28;20432;-83
2021/03/27 05:45:10;;;;;;;17.92;6.82;;;;;;;5.39;98.29;100956.38;5040037;28;20124;-82
2021/03/27 05:48:10;;;;;;;12.43;5.45;;;;;;;5.37;97.69;100947.66;5012508;28;20052;-83
2021/03/27 05:51:06;;;;;;;13.43;5.75;;;;;;;5.37;97.58;100956.47;5020622;28;20045;-83
2021/03/27 05:54:16;;;;;;;10.65;5.00;;;;;;;5.36;97.08;100953.97;5027853;28;20052;-84
2021/03/27 05:56:49;;;;;;;10.88;5.10;;;;;;;5.39;97.18;100946.56;4955131;28;20487;-82
2021/03/27 05:59:52;;;;;;;11.63;5.30;;;;;;;5.39;97.09;100933.25;5017878;28;20565;-81
2021/03/27 06:02:52;;;;;;;12.30;5.55;;;;;;;5.41;96.81;100960.59;5023522;28;20045;-82
2021/03/27 06:05:41;;;;;;;15.88;5.28;;;;;;;5.39;96.19;100954.53;5042995;28;20045;-83
2021/03/27 06:08:51;;;;;;;10.88;5.30;;;;;;;5.42;96.63;100956.94;5028773;28;20042;-83
2021/03/27 06:11:40;;;;;;;14.70;5.55;;;;;;;5.46;96.54;100962.84;4992767;28;20099;-82
2021/03/27 06:14:11;;;;;;;12.07;5.27;;;;;;;5.47;96.25;100958.38;5035645;28;20057;-82
2021/03/27 06:16:51;;;;;;;11.13;4.63;;;;;;;5.47;95.65;100966.34;5008628;28;20046;-82
2021/03/27 06:19:25;;;;;;;13.93;4.97;;;;;;;5.50;95.94;100956.31;5024267;28;20041;-83
2021/03/27 06:22:18;;;;;;;10.88;4.88;;;;;;;5.49;95.65;100973.25;5029531;28;20047;-84
2021/03/27 06:25:20;;;;;;;14.25;4.63;;;;;;;5.50;95.41;100974.13;5023047;28;20107;-82
2021/03/27 06:27:49;;;;;;;12.93;5.40;;;;;;;5.50;96.08;100966.97;5023636;28;20049;-83
2021/03/27 06:30:26;;;;;;;12.20;4.87;;;;;;;5.48;97.69;100982.22;5028975;28;20103;-83
2021/03/27 06:33:00;;;;;;;12.68;5.55;;;;;;;5.42;98.54;100993.38;5035440;28;20069;-82
2021/03/27 06:35:55;;;;;;;9.25;5.00;;;;;;;5.26;98.99;101007.06;5039702;28;20037;-83
2021/03/27 06:38:57;;;;;;;7.93;3.20;;;;;;;5.11;98.78;100998.53;5029054;28;20160;-83
2021/03/27 06:41:31;;;;;;;6.60;2.67;;;;;;;4.87;98.64;101014.63;5039137;28;20045;-83
2021/03/27 06:44:12;;;;;;;7.13;3.35;;;;;;;4.78;100.00;101043.78;5044299;28;20041;-84
2021/03/27 06:47:13;;;;;;;10.40;3.05;;;;;;;4.68;100.00;101033.84;5010672;28;20095;-83
2021/03/27 06:49:47;;;;;;;5.82;3.28;;;;;;;4.64;100.00;101035.06;5006245;28;20042;-83
2021/03/27 06:52:40;;;;;;;8.80;2.80;;;;;;;4.61;100.00;101040.63;5042407;28;20060;-85
2021/03/27 06:55:23;;;;;;;8.10;3.97;;;;;;;4.65;100.00;101039.41;5027756;28;20064;-83
2021/03/27 06:58:07;;;;;;;8.57;3.97;;;;;;;4.60;100.00;101060.19;5028542;28;20393;-84
2021/03/27 07:00:44;;;;;;;10.77;4.97;;;;;;;4.65;100.00;101063.31;5021593;28;20045;-83
2021/03/27 07:03:43;;;;;;;12.27;4.25;;;;;;;4.61;100.00;101056.56;5037798;28;20428;-83
2021/03/27 07:06:12;;;;;;;;;;;;;;;4.60;100.00;101065.50;5022221;28;20107;-83
2021/03/27 07:08:46;;;;;;;12.40;4.60;;;;;;;4.50;100.00;101083.13;5025201;28;19992;-83
2021/03/27 07:11:33;;;;;;;15.18;5.22;;;;;;;4.56;100.00;101100.41;5022533;28;20041;-84
2021/03/27 07:14:20;;;;;;;9.38;4.10;;;;;;;4.49;100.00;101098.25;5039199;28;20397;-81
2021/03/27 07:17:14;;;;;;;8.75;3.28;;;;;;;4.47;100.00;101084.22;5027688;28;20124;-82
2021/03/27 07:20:04;;;;;;;7.85;2.50;;;;;;;4.36;97.96;101081.53;5023713;28;20052;-83
2021/03/27 07:22:50;;;;;;;8.10;2.67;;;;;;;4.34;98.27;101074.63;5032574;28;20189;-83
2021/03/27 07:25:34;;;;;;;7.97;2.10;;;;;;;4.26;97.58;101094.69;5035203;28;20063;-83
2021/03/27 07:28:12;;;;;;;6.13;2.03;;;;;;;4.27;96.04;101095.50;5043252;28;20481;-82
2021/03/27 07:31:05;;;;;;;6.50;2.15;;;;;;;4.26;95.55;101110.63;5026707;28;20037;-83
2021/03/27 07:33:49;;;;;;;4.32;1.90;;;;;;;4.30;95.42;101130.66;5036695;28;21000;-83
2021/03/27 07:36:26;;;;;;;6.78;2.28;;;;;;;4.38;96.30;101132.75;5022240;28;20041;-82
2021/03/27 07:39:30;;;;;;;5.40;1.85;;;;;;;4.32;97.49;101132.38;5043147;28;20099;-83
2021/03/27 07:42:32;;;;;;;6.72;2.08;;;;;;;4.21;97.78;101149.94;4995507;28;20045;-83
2021/03/27 07:45:07;;;;;;;7.18;2.83;;;;;;;4.14;98.64;101146.03;5031456;28;20048;-84
2021/03/27 07:48:08;;;;;;;4.85;1.80;;;;;;;4.12;99.38;101141.84;5038671;28;20041;-82
2021/03/27 07:51:01;;;;;;;6.28;2.28;;;;;;;4.08;100.00;101162.44;5021130;28;20037;-82
2021/03/27 07:53:45;;;;;;;4.82;2.53;;;;;;;3.98;99.90;101161.44;5037784;28;20030;-83
2021/03/27 07:56:53;;;;;;;6.25;2.00;;;;;;;3.94;100.00;101163.47;5023091;28;20045;-82
2021/03/27 07:59:42;;;;;;;6.18;1.83;;;;;;;3.94;100.00;101175.88;5026526;28;20041;-84
2021/03/27 08:02:25;;;;;;;7.80;2.33;;;;;;;4.02;100.00;101192.09;5021581;28;20041;-81
2021/03/27 08:05:13;;;;;;;4.90;1.98;;;;;;;4.12;100.00;101187.84;5036261;28;20076;-83
2021/03/27 08:07:53;;;;;;;7.35;1.92;;;;;;;4.13;100.00;101197.47;5024858;28;20039;-84
2021/03/27 08:10:22;;;;;;;6.32;2.03;;;;;;;4.22;100.00;101195.97;5022579;28;20046;-83
2021/03/27 08:13:06;;;;;;;;;;;;;;;4.32;100.00;101209.44;5041986;28;20128;-83
2021/03/27 08:15:46;;;;;;;5.95;2.50;;;;;;;4.38;100.00;101216.94;5020428;28;19917;-82
2021/03/27 08:18:27;;;;;;;6.68;2.40;;;;;;;4.56;100.00;101225.34;5021648;28;20494;-83
2021/03/27 08:21:15;;;;;;;8.82;2.60;;;;;;;4.72;100.00;101213.44;5015707;28;20128;-83
2021/03/27 08:24:26;;;;;;;8.05;2.65;;;;;;;4.83;98.41;101233.03;5002522;28;20494;-84
2021/03/27 08:27:28;;;;;;;8.55;2.58;;;;;;;4.93;98.96;101239.38;4993575;28;20506;-81
2021/03/27 08:30:12;;;;;;;3.92;2.00;;;;;;;5.12;98.78;101250.31;5038106;28;20037;-83
2021/03/27 08:33:00;;;;;;;8.60;2.10;;;;;;;5.32;97.26;101253.22;5039282;28;20052;-83
2021/03/27 08:35:47;;;;;;;6.03;2.10;;;;;;;5.41;95.76;101249.88;5019366;28;20463;-83
2021/03/27 08:38:13;;;;;;;9.15;2.67;;;;;;;5.59;96.13;101267.06;5021722;28;20120;-83
2021/03/27 08:40:41;;;;;;;6.65;2.00;;;;;;;5.68;94.40;101256.66;5039718;28;20605;-83
2021/03/27 08:43:25;;;;;;;6.05;2.05;;;;;;;5.69;93.72;101263.66;5025624;28;20049;-82
2021/03/27 08:46:27;;;;;;;7.60;2.25;;;;;;;5.87;92.50;101272.88;5029313;28;20469;-83
2021/03/27 08:49:30;;;;;;;11.50;2.78;;;;;;;6.06;91.54;101254.44;5024872;28;20415;-83
2021/03/27 08:52:17;;;;;;;7.65;2.72;;;;;;;6.05;89.68;101268.75;5025617;28;20045;-82
2021/03/27 08:55:10;;;;;;;9.02;2.97;;;;;;;5.98;88.77;101264.88;5006549;28;20060;-82
2021/03/27 08:58:06;;;;;;;11.85;3.28;;;;;;;6.04;89.28;101277.72;5023897;28;20121;-82
2021/03/27 09:01:02;;;;;;;10.07;2.88;;;;;;;6.05;89.17;101281.22;5025981;28;20050;-83
2021/03/27 09:03:37;;;;;;;8.95;2.97;;;;;;;6.19;90.34;101280.97;5029164;28;20397;-82
2021/03/27 09:06:40;;;;;;;8.93;2.80;;;;;;;6.20;88.00;101300.47;5042869;28;20116;-83
2021/03/27 09:09:25;;;;;;;12.75;3.92;;;;;;;6.19;88.85;101306.78;5026011;28;20049;-83
2021/03/27 09:12:28;;;;;;;9.95;3.53;;;;;;;6.33;89.71;101298.53;5027725;28;20401;-82
2021/03/27 09:15:18;;;;;;;7.60;2.97;;;;;;;6.30;87.60;101286.28;5038914;28;20053;-82
2021/03/27 09:18:08;;;;;;;17.05;3.72;;;;;;;6.17;86.84;101290.06;5019025;28;20482;-83
2021/03/27 09:20:48;;;;;;;10.55;3.40;;;;;;;6.09;85.63;101298.66;5026874;28;20049;-83
2021/03/27 09:23:33;;;;;;;11.90;2.47;;;;;;;6.02;84.80;101295.66;5026415;28;20076;-83
2021/03/27 09:26:05;;;;;;;12.38;2.92;;;;;;;5.98;84.58;101299.50;5024142;28;20041;-82
2021/03/27 09:28:53;;;;;;;15.68;3.33;;;;;;;5.97;84.87;101289.81;5022687;28;20053;-82
2021/03/27 09:31:25;;;;;;;10.30;3.03;;;;;;;5.97;85.22;101294.31;5021773;28;20045;-81
2021/03/27 09:34:21;;;;;;;14.25;3.13;;;;;;;6.02;86.34;101294.81;5022406;28;20056;-83
2021/03/27 09:37:30;;;;;;;10.75;2.78;;;;;;;5.98;86.02;101296.00;5023180;28;20417;-82
2021/03/27 09:40:00;;;;;;;12.18;2.92;;;;;;;5.73;86.68;101334.38;4995299;28;20128;-82
2021/03/27 09:42:44;;;;;;;8.98;2.30;;;;;;;5.43;86.08;101339.25;5023285;28;20037;-83
2021/03/27 09:45:19;;;;;;;6.82;2.10;;;;;;;5.25;85.90;101359.28;5027116;28;20064;-84
2021/03/27 09:48:10;;;;;;;10.05;2.63;;;;;;;5.24;86.39;101370.91;5025014;28;20049;-84
2021/03/27 09:50:47;;;;;;;8.90;2.45;;;;;;;5.23;84.73;101376.34;5010570;28;20037;-82
2021/03/27 09:53:34;;;;;;;7.95;2.33;;;;;;;5.33;84.38;101385.34;5024387;28;20033;-82
2021/03/27 09:56:11;;;;;;;6.40;2.30;;;;;;;5.35;82.90;101399.34;5023584;28;20037;-83
2021/03/27 09:58:42;;;;;;;5.05;1.88;;;;;;;5.18;80.47;101413.94;5018345;28;20427;-82
2021/03/27 10:01:24;;;;;;;7.85;1.83;;;;;;;5.09;82.27;101420.81;5028717;28;20033;-83
2021/03/27 10:04:08;;;;;;;8.20;2.00;;;;;;;4.97;84.10;101438.50;5007423;28;20045;-83
2021/03/27 10:06:49;;;;;;;8.23;2.63;;;;;;;4.84;85.49;101442.19;5026032;28;20172;-82
2021/03/27 10:09:36;;;;;;;8.48;2.42;;;;;;;4.76;87.41;101456.03;5022583;28;20081;-82
2021/03/27 10:12:08;;;;;;;8.40;2.38;;;;;;;4.64;88.41;101457.75;5024704;28;20087;-84
2021/03/27 10:14:44;;;;;;;7.85;2.35;;;;;;;4.59;89.64;101446.59;5021130;28;20077;-83
2021/03/27 10:17:23;;;;;;;5.38;2.30;;;;;;;4.49;91.67;101451.72;5020977;28;20124;-82
2021/03/27 10:20:06;;;;;;;7.90;2.30;;;;;;;4.46;93.17;101461.69;5025503;28;20048;-83
2021/03/27 10:22:47;;;;;;;5.93;2.40;;;;;;;4.22;93.04;101467.78;5037105;28;20042;-83
2021/03/27 10:25:20;;;;;;;8.65;2.42;;;;;;;3.97;94.03;101465.13;5020160;28;20169;-83
2021/03/27 10:27:55;;;;;;;14.25;3.15;;;;;;;3.88;96.43;101460.44;5020976;28;20046;-82
2021/03/27 10:30:51;;;;;;;9.90;2.88;;;;;;;3.95;98.13;101457.28;5037366;28;20045;-84
2021/03/27 10:33:34;;;;;;;8.90;3.22;;;;;;;4.15;100.00;101460.38;5019497;28;20037;-84
2021/03/27 10:36:20;;;;;;;9.23;3.03;;;;;;;4.15;99.76;101460.38;5034090;28;20498;-82
2021/03/27 10:39:12;;;;;;;10.80;3.90;;;;;;;4.22;100.00;101466.94;5010402;28;20384;-81
2021/03/27 10:41:38;;;;;;;8.75;3.22;;;;;;;4.33;100.00;101461.72;5035470;28;20069;-83
2021/03/27 10:44:03;;;;;;;10.82;3.72;;;;;;;4.45;100.00;101447.56;5020491;28;20072;-84
2021/03/27 10:46:50;;;;;;;15.80;3.95;;;;;;;4.48;100.00;101457.13;5023347;28;20356;-82
2021/03/27 10:49:41;;;;;;;8.93;3.22;;;;;;;4.53;100.00;101449.69;5018188;28;20394;-82
2021/03/27 10:52:14;;;;;;;9.32;2.63;;;;;;;4.41;97.49;101446.09;5022109;28;20516;-83
2021/03/27 10:54:53;;;;;;;12.23;3.15;;;;;;;4.45;98.50;101458.19;5015823;28;20592;-85
2021/03/27 10:57:38;;;;;;;8.70;2.58;;;;;;;4.44;98.94;101460.97;5018829;28;21417;-82
2021/03/27 11:00:22;;;;;;;11.60;2.90;;;;;;;4.29;97.96;101476.19;5017813;28;20060;-82
2021/03/27 11:03:11;;;;;;;9.18;2.90;;;;;;;4.09;97.53;101447.50;5016689;28;20042;-82
2021/03/27 11:06:00;;;;;;;12.95;2.83;;;;;;;3.99;97.76;101460.56;5023245;28;20038;-83
2021/03/27 11:08:47;;;;;;;10.25;2.67;;;;;;;3.94;98.10;101460.00;5021818;28;20440;-82
2021/03/27 11:11:31;;;;;;;7.65;2.42;;;;;;;3.97;98.99;101467.78;5022116;28;20041;-83
2021/03/27 11:14:20;;;;;;;10.65;3.05;;;;;;;4.18;100.00;101471.63;5016735;28;20041;-83
2021/03/27 11:16:57;;;;;;;7.65;3.28;;;;;;;4.37;100.00;101472.97;5027725;28;20061;-82
2021/03/27 11:19:47;;;;;;;8.82;3.05;;;;;;;4.52;100.00;101467.44;5036378;28;20549;-82
2021/03/27 11:22:18;;;;;;;10.35;3.05;;;;;;;4.66;100.00;101469.13;5024646;28;20430;-83
2021/03/27 11:25:05;;;;;;;6.50;2.95;;;;;;;4.75;98.38;101473.78;5028197;28;20056;-84
2021/03/27 11:27:42;;;;;;;9.30;2.67;;;;;;;4.85;97.47;101481.94;5024128;28;20132;-83
2021/03/27 11:30:24;;;;;;;10.90;3.17;;;;;;;4.92;97.34;101469.03;5025008;28;20095;-84
2021/03/27 11:33:02;;;;;;;10.85;3.35;;;;;;;5.13;98.09;101480.78;5017578;28;20513;-83
2021/03/27 11:35:36;;;;;;;9.52;3.13;;;;;;;5.35;96.77;101484.53;5020334;28;20513;-84
2021/03/27 11:38:18;;;;;;;8.10;2.83;;;;;;;5.60;96.50;101492.38;5020052;28;20092;-82
2021/03/27 11:41:11;;;;;;;11.50;3.15;;;;;;;6.04;96.97;101490.88;4990313;28;20057;-82
2021/03/27 11:43:53;;;;;;;9.32;3.42;;;;;;;6.33;91.16;101466.47;5016274;28;20048;-83
2021/03/27 11:46:25;;;;;;;12.65;2.58;;;;;;;6.38;82.15;101485.56;5037809;28;20060;-83
2021/03/27 11:49:20;;;;;;;9.50;2.13;;;;;;;6.50;81.51;101505.09;5022791;28;20037;-83
2021/03/27 11:51:54;;;;;;;8.15;1.95;;;;;;;6.62;80.38;101511.28;4993221;28;20055;-85
2021/03/27 11:54:49;;;;;;;8.43;1.70;;;;;;;6.80;78.79;101507.16;5025954;28;20037;-84
2021/03/27 11:57:44;;;;;;;9.20;1.95;;;;;;;6.84;76.58;101508.59;5020380;28;20072;-83
2021/03/27 12:03:37;;;;;;;8.23;2.70;;;;;;;7.03;77.34;101521.34;5021438;28;20056;-83
2021/03/27 12:06:29;;;;;;;7.85;1.63;;;;;;;7.11;74.98;101513.56;5027706;28;20048;-84
2021/03/27 12:09:11;;;;;;;7.55;1.40;;;;;;;7.16;71.99;101527.41;5024338;28;20044;-83
2021/03/27 12:11:52;;;;;;;9.55;1.90;;;;;;;7.25;72.56;101528.47;5042493;28;20072;-82
2021/03/27 12:15:15;;;;;;;7.88;2.10;;;;;;;7.33;73.29;101535.84;5023487;28;20079;-84
2021/03/27 12:17:43;;;;;;;7.13;1.50;;;;;;;7.26;67.72;101523.97;4946480;28;20070;-83
2021/03/27 12:20:25;;;;;;;10.43;2.00;;;;;;;7.24;68.25;101537.44;4950739;28;20512;-83
2021/03/27 12:23:15;;;;;;;8.27;1.45;;;;;;;7.11;65.98;101587.47;4988656;28;20557;-83
2021/03/27 12:26:01;;;;;;;7.40;1.35;;;;;;;6.68;71.86;101631.69;5022003;28;20117;-84
2021/03/27 12:28:45;;;;;;;5.35;1.17;;;;;;;6.13;75.21;101629.69;5019654;28;20049;-83
2021/03/27 12:31:33;;;;;;;2.80;1.10;;;;;;;5.72;79.87;101637.09;5026565;28;20041;-84
2021/03/27 12:34:26;;;;;;;5.32;1.35;;;;;;;5.53;84.98;101656.22;5014744;28;20034;-85
2021/03/27 12:37:15;;;;;;;8.30;1.98;;;;;;;5.45;87.62;101655.94;5022365;28;20045;-83
2021/03/27 12:39:57;;;;;;;5.90;1.40;;;;;;;5.44;88.78;101656.91;5021888;28;20064;-83
2021/03/27 12:42:50;;;;;;;7.97;1.63;;;;;;;5.45;89.56;101671.06;5032944;28;20044;-84
2021/03/27 12:45:24;;;;;;;7.25;1.92;;;;;;;5.43;89.57;101682.63;5026568;28;20057;-82